createdAt,value
2019-04-04T00:02:20.273Z,4.03
2019-04-04T00:04:52.493Z,4.23
2019-04-04T00:07:23.748Z,4.40
2019-04-04T00:09:54.371Z,4.37
2019-04-04T00:12:25.047Z,4.23
2019-04-04T00:14:55.906Z,4.30
2019-04-04T00:17:26.764Z,4.17
2019-04-04T00:19:58.959Z,3.90
2019-04-04T00:22:29.729Z,4.20
2019-04-04T00:25:00.349Z,3.93
2019-04-04T00:27:31.095Z,3.83
2019-04-04T00:30:01.772Z,4.37
2019-04-04T00:32:32.401Z,4.37
2019-04-04T00:35:04.583Z,4.22
2019-04-04T00:37:36.086Z,4.80
2019-04-04T00:40:10.913Z,4.23
2019-04-04T00:42:40.052Z,4.67
2019-04-04T00:45:10.846Z,4.78
2019-04-04T00:47:41.435Z,4.50
2019-04-04T00:50:12.583Z,4.37
2019-04-04T00:52:43.204Z,3.67
2019-04-04T00:55:15.815Z,4.22
2019-04-04T00:57:46.336Z,4.80
2019-04-04T01:00:17.271Z,4.40
2019-04-04T01:02:48.138Z,4.40
2019-04-04T01:05:18.715Z,4.87
2019-04-04T01:07:49.361Z,4.03
2019-04-04T01:10:20.229Z,3.85
2019-04-04T01:12:52.236Z,3.85
2019-04-04T01:15:23.384Z,3.93
2019-04-04T01:17:54.195Z,3.93
2019-04-04T01:20:25.299Z,3.70
2019-04-04T01:22:56.740Z,3.83
2019-04-04T01:25:27.513Z,3.60
2019-04-04T01:27:58.205Z,3.60
2019-04-04T01:30:29.117Z,3.97
2019-04-04T01:32:59.800Z,3.50
2019-04-04T01:35:30.373Z,3.73
2019-04-04T01:38:01.260Z,3.27
2019-04-04T01:40:33.594Z,4.20
2019-04-04T01:43:04.630Z,3.63
2019-04-04T01:45:35.318Z,3.83
2019-04-04T01:48:06.476Z,5.10
2019-04-04T01:50:37.328Z,4.80
2019-04-04T01:53:08.529Z,4.42
2019-04-04T01:55:39.424Z,4.47
2019-04-04T01:58:10.755Z,5.30
2019-04-04T02:00:41.506Z,4.03
2019-04-04T02:03:12.286Z,5.17
2019-04-04T02:05:43.283Z,5.00
2019-04-04T02:08:14.488Z,5.30
2019-04-04T02:10:45.570Z,5.20
2019-04-04T02:13:16.378Z,5.10
2019-04-04T02:15:47.361Z,4.87
2019-04-04T02:18:18.487Z,5.12
2019-04-04T02:20:49.278Z,4.87
2019-04-04T02:23:20.462Z,4.97
2019-04-04T02:25:51.710Z,5.87
2019-04-04T02:28:22.354Z,4.80
2019-04-04T02:30:53.621Z,4.93
2019-04-04T02:33:24.313Z,4.77
2019-04-04T02:35:54.945Z,5.57
2019-04-04T02:38:27.990Z,5.30
2019-04-04T02:40:57.895Z,4.83
2019-04-04T02:43:28.768Z,5.20
2019-04-04T02:45:59.470Z,5.13
2019-04-04T02:48:30.288Z,5.03
2019-04-04T02:51:01.209Z,5.15
2019-04-04T02:53:31.826Z,5.17
2019-04-04T02:56:03.696Z,4.73
2019-04-04T02:58:34.471Z,4.70
2019-04-04T03:01:05.578Z,5.00
2019-04-04T03:03:36.332Z,5.10
2019-04-04T03:06:06.973Z,5.53
2019-04-04T03:08:37.890Z,4.80
2019-04-04T03:11:08.791Z,5.28
2019-04-04T03:13:39.488Z,5.33
2019-04-04T03:16:10.389Z,5.30
2019-04-04T03:18:40.977Z,5.97
2019-04-04T03:21:11.965Z,6.03
2019-04-04T03:23:42.573Z,6.23
2019-04-04T03:26:13.497Z,5.80
2019-04-04T03:28:44.465Z,6.40
2019-04-04T03:31:15.101Z,6.27
2019-04-04T03:33:45.891Z,6.13
2019-04-04T03:36:16.726Z,6.22
2019-04-04T03:38:47.529Z,5.77
2019-04-04T03:41:18.661Z,5.97
2019-04-04T03:43:49.544Z,6.37
2019-04-04T03:46:20.465Z,6.15
2019-04-04T03:48:51.526Z,6.72
2019-04-04T03:51:22.411Z,6.17
2019-04-04T03:53:56.286Z,6.53
2019-04-04T03:56:26.959Z,6.40
2019-04-04T03:59:00.113Z,6.47
2019-04-04T04:01:29.969Z,7.43
2019-04-04T04:04:00.571Z,6.67
2019-04-04T04:06:31.478Z,6.87
2019-04-04T04:09:02.066Z,6.57
2019-04-04T04:11:34.682Z,6.30
2019-04-04T04:14:05.092Z,6.80
2019-04-04T04:16:36.206Z,6.80
2019-04-04T04:19:06.897Z,6.50
2019-04-04T04:21:37.498Z,7.00
2019-04-04T04:24:08.096Z,6.27
2019-04-04T04:26:41.876Z,6.80
2019-04-04T04:29:11.038Z,6.90
2019-04-04T04:31:41.707Z,7.20
2019-04-04T04:34:12.643Z,6.55
2019-04-04T04:36:47.671Z,6.58
2019-04-04T04:39:16.171Z,7.00
2019-04-04T04:41:46.807Z,6.50
2019-04-04T04:44:17.784Z,6.90
2019-04-04T04:46:50.427Z,7.00
2019-04-04T04:49:23.339Z,7.10
2019-04-04T04:51:53.675Z,6.70
2019-04-04T04:54:24.331Z,6.37
2019-04-04T04:56:55.200Z,6.90
2019-04-04T04:59:25.828Z,6.67
2019-04-04T05:01:56.771Z,6.70
2019-04-04T05:04:28.358Z,6.83
2019-04-04T05:06:59.786Z,6.33
2019-04-04T05:09:30.665Z,7.07
2019-04-04T05:12:01.279Z,7.03
2019-04-04T05:14:31.969Z,7.27
2019-04-04T05:17:02.758Z,7.40
2019-04-04T05:19:33.777Z,6.77
2019-04-04T05:22:06.984Z,6.83
2019-04-04T05:24:37.810Z,7.60
2019-04-04T05:27:09.162Z,7.17
2019-04-04T05:29:39.841Z,7.67
2019-04-04T05:32:13.342Z,7.40
2019-04-04T05:34:44.075Z,7.93
2019-04-04T05:37:14.845Z,7.67
2019-04-04T05:39:47.048Z,7.93
2019-04-04T05:42:18.421Z,7.97
2019-04-04T05:44:49.113Z,7.70
2019-04-04T05:47:22.910Z,7.67
2019-04-04T05:49:52.839Z,8.07
2019-04-04T05:52:25.143Z,7.97
2019-04-04T05:54:55.731Z,7.97
2019-04-04T05:57:26.391Z,8.23
2019-04-04T05:59:57.000Z,7.57
2019-04-04T06:02:27.758Z,7.77
2019-04-04T06:04:58.433Z,8.10
2019-04-04T06:07:29.046Z,8.00
2019-04-04T06:09:59.875Z,7.67
2019-04-04T06:12:30.918Z,8.00
2019-04-04T06:15:01.966Z,7.13
2019-04-04T06:17:32.821Z,7.43
2019-04-04T06:20:06.333Z,7.26
2019-04-04T06:22:37.009Z,7.33
2019-04-04T06:25:08.502Z,7.23
2019-04-04T06:27:40.242Z,7.20
2019-04-04T06:30:13.120Z,7.50
2019-04-04T06:32:43.835Z,6.83
2019-04-04T06:35:15.468Z,7.20
2019-04-04T06:37:47.026Z,6.97
2019-04-04T06:40:18.244Z,6.87
2019-04-04T06:42:48.928Z,6.50
2019-04-04T06:45:19.963Z,6.17
2019-04-04T06:47:51.019Z,6.47
2019-04-04T06:50:23.223Z,6.50
2019-04-04T06:52:56.372Z,6.63
2019-04-04T06:55:28.850Z,7.00
2019-04-04T06:58:02.164Z,7.03
2019-04-04T07:00:32.993Z,6.80
2019-04-04T07:03:05.163Z,7.45
2019-04-04T07:05:37.746Z,6.87
2019-04-04T07:08:08.576Z,7.17
2019-04-04T07:10:39.197Z,7.27
2019-04-04T07:13:21.704Z,7.27
2019-04-04T07:15:46.940Z,7.97
2019-04-04T07:18:15.219Z,7.30
2019-04-04T07:20:48.291Z,7.73
2019-04-04T07:23:18.720Z,8.75
2019-04-04T07:25:49.316Z,8.27
2019-04-04T07:28:20.017Z,7.83
2019-04-04T07:30:50.929Z,8.40
2019-04-04T07:33:21.868Z,8.30
2019-04-04T07:35:52.569Z,8.97
2019-04-04T07:38:23.239Z,8.55
2019-04-04T07:40:54.117Z,8.30
2019-04-04T07:43:24.757Z,8.33
2019-04-04T07:45:59.703Z,7.90
2019-04-04T07:48:28.542Z,8.07
2019-04-04T07:50:59.314Z,7.57
2019-04-04T07:53:30.008Z,8.63
2019-04-04T07:56:00.965Z,7.97
2019-04-04T07:58:31.557Z,8.33
2019-04-04T08:01:02.191Z,7.17
2019-04-04T08:03:33.041Z,7.60
2019-04-04T08:06:05.481Z,7.87
2019-04-04T08:08:36.215Z,7.33
2019-04-04T08:11:07.332Z,7.90
2019-04-04T08:13:38.150Z,7.50
2019-04-04T08:16:09.188Z,9.03
2019-04-04T08:18:40.253Z,8.60
2019-04-04T08:21:11.389Z,7.45
2019-04-04T08:23:42.078Z,7.03
2019-04-04T08:26:13.006Z,7.27
2019-04-04T08:28:43.653Z,7.63
2019-04-04T08:31:14.271Z,7.80
2019-04-04T08:33:45.129Z,6.40
2019-04-04T08:36:16.076Z,6.77
2019-04-04T08:38:47.189Z,6.87
2019-04-04T08:41:18.517Z,6.78
2019-04-04T08:43:49.353Z,6.23
2019-04-04T08:46:20.247Z,5.80
2019-04-04T08:48:51.160Z,4.73
2019-04-04T08:51:22.178Z,5.10
2019-04-04T08:53:53.121Z,4.70
2019-04-04T08:56:24.112Z,4.30
2019-04-04T08:58:54.710Z,5.10
2019-04-04T09:01:25.339Z,4.37
2019-04-04T09:03:56.107Z,4.17
2019-04-04T09:06:30.743Z,4.10
2019-04-04T09:09:01.419Z,3.77
2019-04-04T09:11:32.361Z,4.07
2019-04-04T09:14:03.275Z,3.77
2019-04-04T09:16:35.729Z,3.87
2019-04-04T09:19:06.827Z,3.70
2019-04-04T09:21:37.442Z,3.90
2019-04-04T09:24:08.359Z,3.70
2019-04-04T09:26:39.182Z,4.63
2019-04-04T09:29:09.810Z,3.95
2019-04-04T09:31:42.820Z,3.73
2019-04-04T09:34:13.432Z,3.83
2019-04-04T09:36:47.179Z,4.03
2019-04-04T09:39:17.849Z,3.80
2019-04-04T09:41:48.492Z,3.90
2019-04-04T09:44:19.681Z,3.95
2019-04-04T09:46:50.300Z,3.97
2019-04-04T09:49:21.848Z,4.08
2019-04-04T09:51:52.479Z,3.40
2019-04-04T09:54:23.633Z,3.80
2019-04-04T09:56:54.517Z,3.60
2019-04-04T09:59:25.157Z,3.40
2019-04-04T10:01:55.895Z,3.67
2019-04-04T10:04:26.545Z,3.90
2019-04-04T10:06:57.220Z,3.40
2019-04-04T10:09:28.112Z,3.73
2019-04-04T10:11:58.796Z,3.60
2019-04-04T10:14:29.453Z,3.17
2019-04-04T10:17:00.464Z,3.47
2019-04-04T10:19:31.224Z,3.47
2019-04-04T10:22:02.191Z,4.27
2019-04-04T10:24:33.109Z,3.98
2019-04-04T10:27:05.717Z,4.04
2019-04-04T10:29:36.474Z,3.53
2019-04-04T10:32:07.465Z,3.20
2019-04-04T10:34:38.395Z,3.60
2019-04-04T10:37:09.490Z,3.47
2019-04-04T10:39:40.170Z,3.30
2019-04-04T10:42:11.473Z,3.33
2019-04-04T10:44:42.199Z,3.50
2019-04-04T10:47:13.740Z,3.30
2019-04-04T10:49:44.453Z,3.08
2019-04-04T10:52:15.095Z,3.57
2019-04-04T10:54:46.113Z,3.42
2019-04-04T10:57:16.962Z,3.67
2019-04-04T10:59:48.021Z,3.50
2019-04-04T11:02:18.827Z,3.67
2019-04-04T11:04:50.106Z,3.77
2019-04-04T11:07:22.714Z,3.70
2019-04-04T11:09:53.628Z,3.60
2019-04-04T11:12:24.298Z,3.83
2019-04-04T11:14:55.143Z,3.37
2019-04-04T11:17:26.095Z,4.10
2019-04-04T11:19:56.770Z,3.60
2019-04-04T11:22:27.464Z,4.53
2019-04-04T11:24:58.196Z,4.07
2019-04-04T11:27:28.996Z,3.97
2019-04-04T11:30:00.079Z,3.87
2019-04-04T11:32:30.871Z,4.10
2019-04-04T11:35:01.799Z,3.70
2019-04-04T11:37:32.783Z,4.67
2019-04-04T11:40:05.138Z,4.73
2019-04-04T11:42:36.389Z,4.47
2019-04-04T11:45:07.375Z,4.07
2019-04-04T11:47:40.194Z,4.47
2019-04-04T11:50:12.069Z,4.53
2019-04-04T11:52:43.074Z,4.03
2019-04-04T11:55:14.034Z,4.10
2019-04-04T11:57:46.569Z,3.62
2019-04-04T12:00:24.127Z,3.77
2019-04-04T12:02:55.084Z,4.23
2019-04-04T12:05:26.659Z,4.47
2019-04-04T12:07:57.814Z,4.00
2019-04-04T12:10:28.478Z,4.53
2019-04-04T12:12:59.171Z,4.00
2019-04-04T12:15:30.164Z,4.80
2019-04-04T12:18:01.071Z,4.40
2019-04-04T12:20:32.166Z,5.53
2019-04-04T12:23:03.209Z,3.83
2019-04-04T12:25:34.072Z,4.50
2019-04-04T12:28:04.954Z,4.50
2019-04-04T12:30:36.637Z,4.67
2019-04-04T12:33:07.359Z,4.73
2019-04-04T12:35:38.863Z,4.13
2019-04-04T12:38:10.270Z,4.07
2019-04-04T12:40:41.179Z,4.90
2019-04-04T12:43:12.253Z,4.77
2019-04-04T12:45:43.229Z,5.03
2019-04-04T12:48:14.121Z,4.77
2019-04-04T12:50:44.785Z,4.37
2019-04-04T12:53:15.568Z,4.60
2019-04-04T12:55:46.883Z,4.53
2019-04-04T12:58:18.218Z,4.50
2019-04-04T13:00:49.003Z,4.07
2019-04-04T13:03:22.293Z,4.07
2019-04-04T13:06:06.627Z,4.43
2019-04-04T13:08:37.553Z,4.00
2019-04-04T13:11:08.822Z,3.57
2019-04-04T13:13:39.859Z,3.87
2019-04-04T13:16:12.154Z,3.57
2019-04-04T13:18:43.191Z,3.67
2019-04-04T13:21:14.148Z,3.20
2019-04-04T13:23:45.448Z,3.25
2019-04-04T13:26:16.308Z,3.53
2019-04-04T13:28:47.598Z,2.73
2019-04-04T13:31:18.541Z,2.77
2019-04-04T13:33:49.624Z,2.40
2019-04-04T13:36:20.533Z,1.90
2019-04-04T13:38:51.608Z,1.87
2019-04-04T13:41:22.563Z,2.00
2019-04-04T13:43:54.325Z,2.10
2019-04-04T13:46:29.197Z,1.73
2019-04-04T13:48:58.175Z,1.90
2019-04-04T13:51:28.944Z,1.60
2019-04-04T13:53:59.662Z,2.20
2019-04-04T13:56:30.458Z,1.80
2019-04-04T13:59:04.363Z,1.93
2019-04-04T14:01:34.094Z,2.15
2019-04-04T14:04:04.771Z,1.70
2019-04-04T14:06:36.765Z,2.10
2019-04-04T14:09:11.971Z,2.20
2019-04-04T14:11:42.273Z,1.60
2019-04-04T14:14:13.203Z,2.10
2019-04-04T14:16:44.345Z,2.20
2019-04-04T14:19:15.268Z,2.23
2019-04-04T14:21:46.384Z,2.08
2019-04-04T14:24:17.263Z,2.30
2019-04-04T14:26:48.258Z,2.20
2019-04-04T14:29:27.220Z,2.33
2019-04-04T14:31:52.587Z,2.87
2019-04-04T14:34:23.375Z,2.53
2019-04-04T14:36:54.355Z,2.87
2019-04-04T14:39:25.356Z,2.60
2019-04-04T14:41:56.098Z,2.87
2019-04-04T14:44:28.091Z,3.37
2019-04-04T14:46:59.261Z,3.30
2019-04-04T14:49:30.188Z,3.33
2019-04-04T14:52:01.685Z,3.90
2019-04-04T14:54:32.536Z,3.40
2019-04-04T14:57:03.442Z,3.80
2019-04-04T14:59:34.259Z,4.00
2019-04-04T15:02:05.205Z,3.77
2019-04-04T15:04:36.676Z,3.65
2019-04-04T15:07:07.411Z,3.90
2019-04-04T15:09:38.545Z,6.20
2019-04-04T15:12:09.419Z,3.97
2019-04-04T15:14:40.383Z,3.73
2019-04-04T15:17:11.374Z,4.57
2019-04-04T15:19:42.574Z,5.42
2019-04-04T15:22:13.389Z,5.20
2019-04-04T15:24:44.445Z,5.47
2019-04-04T15:27:15.483Z,7.00
2019-04-04T15:29:46.385Z,5.87
2019-04-04T15:32:17.298Z,6.87
2019-04-04T15:34:48.663Z,6.35
2019-04-04T15:37:19.381Z,6.90
2019-04-04T15:39:50.628Z,6.50
2019-04-04T15:42:21.418Z,6.13
2019-04-04T15:44:52.337Z,6.45
2019-04-04T15:47:23.361Z,6.27
2019-04-04T15:49:54.868Z,7.97
2019-04-04T15:52:25.512Z,7.13
2019-04-04T15:54:56.440Z,6.80
2019-04-04T15:57:27.356Z,6.43
2019-04-04T15:59:57.996Z,6.87
2019-04-04T16:02:28.642Z,7.17
2019-04-04T16:04:59.439Z,6.33
2019-04-04T16:07:30.355Z,5.73
2019-04-04T16:10:01.329Z,5.77
2019-04-04T16:12:31.989Z,6.87
2019-04-04T16:15:02.677Z,6.43
2019-04-04T16:17:33.556Z,6.00
2019-04-04T16:20:04.592Z,6.63
2019-04-04T16:22:36.719Z,6.35
2019-04-04T16:25:07.405Z,6.00
2019-04-04T16:27:38.670Z,5.87
2019-04-04T16:30:10.317Z,6.70
2019-04-04T16:32:41.068Z,5.60
2019-04-04T16:35:11.952Z,6.10
2019-04-04T16:37:42.754Z,5.78
2019-04-04T16:40:14.243Z,5.70
2019-04-04T16:42:45.220Z,8.08
2019-04-04T16:45:16.019Z,5.67
2019-04-04T16:47:46.675Z,5.33
2019-04-04T16:50:17.968Z,5.40
2019-04-04T16:52:49.145Z,5.05
2019-04-04T16:55:19.873Z,5.87
2019-04-04T16:57:50.755Z,5.55
2019-04-04T17:00:22.848Z,5.87
2019-04-04T17:02:53.729Z,4.60
2019-04-04T17:05:24.460Z,5.00
2019-04-04T17:07:55.433Z,4.93
2019-04-04T17:10:28.115Z,5.75
2019-04-04T17:12:59.344Z,5.00
2019-04-04T17:15:30.371Z,5.47
2019-04-04T17:18:01.018Z,5.10
2019-04-04T17:20:31.815Z,4.83
2019-04-04T17:23:02.771Z,6.10
2019-04-04T17:25:33.638Z,5.77
2019-04-04T17:28:04.635Z,4.93
2019-04-04T17:30:36.873Z,5.80
2019-04-04T17:33:08.219Z,4.97
2019-04-04T17:35:39.399Z,5.60
2019-04-04T17:38:10.139Z,4.70
2019-04-04T17:40:41.112Z,5.40
2019-04-04T17:43:11.838Z,4.27
2019-04-04T17:45:43.107Z,5.78
2019-04-04T17:48:14.151Z,5.30
2019-04-04T17:50:44.945Z,5.37
2019-04-04T17:53:16.009Z,4.57
2019-04-04T17:55:47.626Z,5.03
2019-04-04T17:58:18.761Z,4.87
2019-04-04T18:00:49.727Z,4.53
2019-04-04T18:03:20.684Z,4.95
2019-04-04T18:05:51.958Z,5.33
2019-04-04T18:08:22.622Z,5.13
2019-04-04T18:10:53.805Z,5.03
2019-04-04T18:13:24.643Z,5.23
2019-04-04T18:15:55.510Z,5.28
2019-04-04T18:18:26.532Z,4.60
2019-04-04T18:20:57.186Z,4.13
2019-04-04T18:23:27.872Z,4.77
2019-04-04T18:25:58.672Z,4.90
2019-04-04T18:28:29.648Z,4.08
2019-04-04T18:31:00.782Z,4.47
2019-04-04T18:33:32.179Z,3.63
2019-04-04T18:36:03.566Z,3.37
2019-04-04T18:38:35.421Z,3.40
2019-04-04T18:41:06.435Z,3.17
2019-04-04T18:43:37.235Z,3.20
2019-04-04T18:46:08.014Z,3.90
2019-04-04T18:48:39.410Z,3.67
2019-04-04T18:51:10.166Z,3.90
2019-04-04T18:53:40.889Z,4.10
2019-04-04T18:56:11.970Z,4.50
2019-04-04T18:58:42.990Z,6.35
2019-04-04T19:01:14.338Z,8.17
2019-04-04T19:03:45.219Z,9.95
2019-04-04T19:06:16.088Z,8.67
2019-04-04T19:08:47.063Z,6.73
2019-04-04T19:11:18.304Z,5.63
2019-04-04T19:13:49.580Z,5.67
2019-04-04T19:16:20.286Z,11.83
2019-04-04T19:18:51.282Z,7.85
2019-04-04T19:21:22.066Z,7.23
2019-04-04T19:23:53.121Z,8.28
2019-04-04T19:26:23.827Z,5.53
2019-04-04T19:28:54.691Z,7.92
2019-04-04T19:31:25.831Z,7.12
2019-04-04T19:33:56.764Z,6.60
2019-04-04T19:36:27.953Z,6.93
2019-04-04T19:38:58.944Z,7.40
2019-04-04T19:41:29.928Z,7.10
2019-04-04T19:44:00.831Z,6.00
2019-04-04T19:46:37.307Z,5.90
2019-04-04T19:49:04.577Z,5.50
2019-04-04T19:51:36.506Z,5.67
2019-04-04T19:54:07.270Z,5.83
2019-04-04T19:56:37.927Z,5.00
2019-04-04T19:59:08.811Z,5.07
2019-04-04T20:01:39.934Z,5.37
2019-04-04T20:04:10.939Z,5.50
2019-04-04T20:06:41.999Z,5.57
2019-04-04T20:09:12.901Z,5.67
2019-04-04T20:11:43.990Z,5.60
2019-04-04T20:14:14.778Z,5.30
2019-04-04T20:16:45.454Z,5.90
2019-04-04T20:19:16.115Z,5.33
2019-04-04T20:21:47.059Z,5.83
2019-04-04T20:24:18.000Z,5.33
2019-04-04T20:26:49.123Z,4.97
2019-04-04T20:29:19.851Z,5.87
2019-04-04T20:31:51.117Z,5.35
2019-04-04T20:34:22.008Z,5.27
2019-04-04T20:36:53.197Z,6.30
2019-04-04T20:39:24.013Z,6.90
2019-04-04T20:41:55.189Z,6.15
2019-04-04T20:44:25.875Z,6.10
2019-04-04T20:46:56.552Z,6.87
2019-04-04T20:49:27.178Z,5.83
2019-04-04T20:51:57.844Z,6.80
2019-04-04T20:54:28.604Z,5.73
2019-04-04T20:56:59.291Z,5.70
2019-04-04T20:59:29.944Z,5.93
2019-04-04T21:02:01.048Z,6.10
2019-04-04T21:04:31.908Z,6.40
2019-04-04T21:07:02.893Z,6.33
2019-04-04T21:09:33.492Z,7.03
2019-04-04T21:12:04.340Z,7.40
2019-04-04T21:14:35.000Z,6.67
2019-04-04T21:17:05.851Z,6.97
2019-04-04T21:19:37.289Z,7.03
2019-04-04T21:22:07.941Z,7.40
2019-04-04T21:24:39.148Z,7.33
2019-04-04T21:27:10.104Z,7.50
2019-04-04T21:29:40.980Z,6.60
2019-04-04T21:32:11.893Z,7.70
2019-04-04T21:34:42.803Z,7.42
2019-04-04T21:37:13.416Z,7.10
2019-04-04T21:39:44.178Z,7.85
2019-04-04T21:42:15.156Z,7.20
2019-04-04T21:44:46.067Z,7.57
2019-04-04T21:47:17.027Z,7.07
2019-04-04T21:49:47.671Z,7.45
2019-04-04T21:52:18.269Z,7.20
2019-04-04T21:54:49.242Z,7.15
2019-04-04T21:57:20.141Z,7.10
2019-04-04T21:59:51.148Z,6.80
2019-04-04T22:02:22.146Z,7.20
2019-04-04T22:04:53.249Z,7.67
